Time;durP1;ratioP1;P1;durP2;ratioP2;P2;SDS_P1;SDS_P2;PMS_P1;PMS_P2;Temp;Humidity;BMP_temperature;BMP_pressure;BME280_temperature;BME280_humidity;BME280_pressure;Samples;Min_cycle;Max_cycle;Signal;HPM_P1;HPM_P2
2022/09/21 00:01:13;;;;;;;6.68;4.70;;;;;;;18.50;50.90;93931.63;5039799;28;20506;-88
2022/09/21 00:03:40;;;;;;;7.43;4.45;;;;;;;18.47;50.68;93936.09;5065850;28;20040;-87
2022/09/21 00:06:08;;;;;;;4.95;3.85;;;;;;;18.46;51.17;93939.31;5054598;28;20071;-87
2022/09/21 00:08:34;;;;;;;6.93;4.55;;;;;;;18.45;50.69;93935.09;5071041;28;20046;-87
2022/09/21 00:10:59;;;;;;;5.35;4.25;;;;;;;18.45;50.43;93933.09;5051339;28;20032;-87
2022/09/21 00:13:27;;;;;;;5.15;4.00;;;;;;;18.46;50.82;93934.59;5050469;28;20112;-87
2022/09/21 00:15:55;;;;;;;6.43;3.92;;;;;;;18.46;50.49;93928.38;5035441;28;20036;-87
2022/09/21 00:18:21;;;;;;;5.30;3.80;;;;;;;18.46;50.43;93922.91;5091562;28;20038;-88
2022/09/21 00:20:46;;;;;;;5.75;4.22;;;;;;;18.43;50.76;93926.63;5071496;28;20166;-87
2022/09/21 00:23:12;;;;;;;4.88;3.70;;;;;;;18.45;50.55;93935.09;5034510;28;20037;-87
2022/09/21 00:25:37;;;;;;;5.97;4.45;;;;;;;18.45;50.76;93926.88;5041525;28;20514;-87
2022/09/21 00:28:03;;;;;;;5.45;4.05;;;;;;;18.45;50.55;93929.63;5050607;28;20487;-88
2022/09/21 00:30:28;;;;;;;5.30;4.05;;;;;;;18.45;50.91;93929.63;5042965;28;20033;-87
2022/09/21 00:32:54;;;;;;;4.68;4.13;;;;;;;18.43;50.67;93924.63;5066936;28;20033;-87
2022/09/21 00:35:19;;;;;;;7.00;4.35;;;;;;;18.43;50.79;93935.59;5050221;28;20048;-87
2022/09/21 00:37:46;;;;;;;5.82;3.58;;;;;;;18.43;50.54;93930.13;5034233;28;20028;-87
2022/09/21 00:40:11;;;;;;;4.82;3.67;;;;;;;18.45;51.21;93932.34;5075317;28;20051;-87
2022/09/21 00:42:37;;;;;;;4.28;3.78;;;;;;;18.43;50.63;93932.09;5067616;28;20518;-87
2022/09/21 00:45:03;;;;;;;7.00;4.40;;;;;;;18.43;51.03;93934.84;5050289;28;20072;-87
2022/09/21 00:47:38;;;;;;;5.30;4.13;;;;;;;18.43;51.19;93937.59;5045454;28;20040;-87
2022/09/21 00:50:10;;;;;;;4.43;3.58;;;;;;;18.42;50.66;93939.56;5061235;28;20043;-87
2022/09/21 00:52:38;;;;;;;5.20;3.92;;;;;;;18.42;50.75;93936.84;5060184;28;20398;-86
2022/09/21 00:55:26;;;;;;;4.43;3.58;;;;;;;18.42;50.61;93936.09;5049700;28;20040;-87
2022/09/21 00:57:54;;;;;;;4.85;3.33;;;;;;;18.43;50.67;93935.59;5067308;28;20573;-87
2022/09/21 01:00:20;;;;;;;6.40;4.57;;;;;;;18.42;50.82;93936.84;5052938;28;20479;-87
2022/09/21 01:02:45;;;;;;;3.85;3.13;;;;;;;18.41;50.45;93932.59;5053633;28;20089;-87
2022/09/21 01:05:10;;;;;;;4.57;3.50;;;;;;;18.41;50.85;93926.38;5052501;28;20032;-87
2022/09/21 01:07:38;;;;;;;3.40;3.03;;;;;;;18.41;50.87;93932.59;5058177;28;20032;-87
2022/09/21 01:10:08;;;;;;;4.90;3.60;;;;;;;18.41;50.96;93940.06;5069639;28;20020;-87
2022/09/21 01:12:37;;;;;;;5.72;3.78;;;;;;;18.40;50.66;93936.59;5046929;28;20120;-86
2022/09/21 01:15:35;;;;;;;4.07;3.38;;;;;;;18.43;50.90;93935.59;5093769;28;20017;-87
2022/09/21 01:18:11;;;;;;;4.05;3.08;;;;;;;18.44;50.79;93945.31;5066108;28;20032;-87
2022/09/21 01:20:57;;;;;;;3.83;3.20;;;;;;;18.41;50.89;93931.84;5069234;28;20037;-87
2022/09/21 01:23:47;;;;;;;3.95;3.10;;;;;;;18.39;50.65;93932.38;5085779;28;20098;-87
2022/09/21 01:26:15;;;;;;;4.38;3.47;;;;;;;18.41;50.62;93938.06;5085928;28;20551;-88
2022/09/21 01:28:52;;;;;;;5.03;3.53;;;;;;;18.42;50.46;93941.56;5088595;28;20032;-87
2022/09/21 01:31:21;;;;;;;3.45;2.70;;;;;;;18.38;50.61;93947.31;5085989;28;20075;-87
2022/09/21 01:33:51;;;;;;;4.05;2.70;;;;;;;18.38;50.45;93950.06;5067172;28;20034;-87
2022/09/21 01:36:19;;;;;;;3.95;3.08;;;;;;;18.40;50.99;93941.34;5107004;28;20039;-87
2022/09/21 01:38:48;;;;;;;4.80;3.17;;;;;;;18.40;50.37;93946.81;5090314;28;20032;-87
2022/09/21 01:41:15;;;;;;;3.45;2.97;;;;;;;18.39;50.77;93945.31;5067836;28;20043;-87
2022/09/21 01:43:42;;;;;;;3.47;2.88;;;;;;;18.38;50.61;93944.56;5028920;28;20060;-87
2022/09/21 01:46:12;;;;;;;3.65;3.03;;;;;;;18.38;50.55;93938.34;5063314;28;20021;-87
2022/09/21 01:48:38;;;;;;;3.35;2.70;;;;;;;18.38;50.57;93943.81;5083148;28;20043;-87
2022/09/21 01:51:05;;;;;;;3.13;2.70;;;;;;;18.39;50.42;93942.59;5065641;28;20043;-87
2022/09/21 01:53:32;;;;;;;3.83;3.00;;;;;;;18.39;50.55;93954.28;5086314;28;20090;-87
2022/09/21 01:56:00;;;;;;;4.63;3.28;;;;;;;18.38;50.70;93952.78;5085787;28;20036;-87
2022/09/21 01:58:35;;;;;;;3.50;2.65;;;;;;;18.40;50.36;93944.06;5048819;28;20078;-87
2022/09/21 02:01:00;;;;;;;3.90;2.70;;;;;;;18.39;50.73;93951.53;5033373;28;20058;-87
2022/09/21 02:03:28;;;;;;;3.53;3.08;;;;;;;18.38;50.54;93952.78;5047910;28;20086;-87
2022/09/21 02:05:54;;;;;;;3.70;2.90;;;;;;;18.36;50.61;93949.78;5033892;28;20110;-87
2022/09/21 02:08:19;;;;;;;4.00;2.95;;;;;;;18.37;50.60;93945.81;5053672;28;20041;-87
2022/09/21 02:10:47;;;;;;;3.72;2.78;;;;;;;18.37;50.11;93945.06;5065494;28;20024;-87
2022/09/21 02:13:13;;;;;;;4.20;3.05;;;;;;;18.36;50.15;93943.56;5046950;28;20033;-87
2022/09/21 02:16:05;;;;;;;3.63;2.70;;;;;;;18.37;50.66;93942.34;5048179;28;20576;-87
2022/09/21 02:18:39;;;;;;;3.47;2.50;;;;;;;18.37;50.71;93947.81;5076253;28;20035;-87
2022/09/21 02:21:07;;;;;;;3.45;2.60;;;;;;;18.37;50.81;93947.81;5088945;28;20043;-87
2022/09/21 02:23:50;;;;;;;3.88;3.10;;;;;;;18.36;50.56;93943.56;5078732;28;20047;-87
2022/09/21 02:26:21;;;;;;;3.15;2.25;;;;;;;18.36;50.36;93938.09;5068517;28;20530;-87
2022/09/21 02:28:50;;;;;;;3.08;2.47;;;;;;;18.36;50.52;93930.63;5046930;28;20040;-87
2022/09/21 02:31:26;;;;;;;2.97;2.50;;;;;;;18.36;50.44;93933.38;5084337;28;20028;-87
2022/09/21 02:34:01;;;;;;;3.78;2.47;;;;;;;18.35;50.36;93933.88;5069886;28;20032;-87
2022/09/21 02:36:38;;;;;;;3.50;2.50;;;;;;;18.35;50.69;93934.63;5068534;28;20047;-87
2022/09/21 02:39:07;;;;;;;3.58;2.33;;;;;;;18.35;50.38;93940.09;5052232;28;20078;-87
2022/09/21 02:41:44;;;;;;;2.80;2.40;;;;;;;18.34;50.46;93938.59;5051816;28;20039;-87
2022/09/21 02:44:32;;;;;;;3.10;2.20;;;;;;;18.36;50.68;93947.06;5064605;28;20032;-87
2022/09/21 02:47:10;;;;;;;2.25;1.90;;;;;;;18.36;50.62;93946.31;5052300;28;20032;-87
2022/09/21 02:49:40;;;;;;;3.58;2.38;;;;;;;18.35;50.32;93942.06;5069157;28;20056;-87
2022/09/21 02:52:11;;;;;;;3.00;2.20;;;;;;;18.34;50.32;93944.06;5052262;28;20040;-87
2022/09/21 02:54:37;;;;;;;2.42;2.10;;;;;;;18.32;50.12;93949.28;5051395;28;20585;-87
2022/09/21 02:57:02;;;;;;;3.08;2.35;;;;;;;18.32;50.30;93949.28;5051528;28;20044;-87
2022/09/21 02:59:28;;;;;;;3.40;2.45;;;;;;;18.32;50.21;93951.28;5047640;28;20048;-87
2022/09/21 03:01:54;;;;;;;3.35;2.65;;;;;;;18.31;50.24;93956.00;5044028;28;20032;-87
2022/09/21 03:04:20;;;;;;;2.80;2.28;;;;;;;18.34;50.41;93957.00;5064449;28;20044;-87
2022/09/21 03:06:46;;;;;;;2.50;2.10;;;;;;;18.33;50.58;93961.00;5032416;28;20047;-87
2022/09/21 03:09:11;;;;;;;2.20;2.00;;;;;;;18.32;50.18;93956.75;5055523;28;20032;-87
2022/09/21 03:11:37;;;;;;;2.67;1.95;;;;;;;18.32;49.91;93954.00;5048288;28;20032;-87
2022/09/21 03:14:07;;;;;;;2.20;1.85;;;;;;;18.32;50.21;93962.22;5034084;28;20029;-88
2022/09/21 03:16:32;;;;;;;3.10;2.47;;;;;;;18.32;50.18;93956.75;5050245;28;20033;-87
2022/09/21 03:18:58;;;;;;;3.22;2.20;;;;;;;18.34;50.24;93962.47;5035487;28;20078;-87
2022/09/21 03:21:23;;;;;;;3.15;2.22;;;;;;;18.32;50.32;93962.22;5045959;28;20032;-87
2022/09/21 03:23:48;;;;;;;2.65;2.17;;;;;;;18.33;49.79;93972.69;5040764;28;20056;-87
2022/09/21 03:26:14;;;;;;;2.03;1.83;;;;;;;18.32;50.50;93970.44;5052407;28;20041;-87
2022/09/21 03:28:39;;;;;;;2.05;1.85;;;;;;;18.33;49.65;93966.47;5042708;28;20078;-87
2022/09/21 03:31:05;;;;;;;3.30;1.92;;;;;;;18.33;49.79;93974.66;5051736;28;20406;-87
2022/09/21 03:33:30;;;;;;;2.75;2.17;;;;;;;18.31;50.08;93974.41;5076567;28;20029;-87
2022/09/21 03:35:56;;;;;;;2.15;1.95;;;;;;;18.33;49.94;93969.19;5067958;28;20058;-87
2022/09/21 03:38:21;;;;;;;2.28;2.03;;;;;;;18.32;50.03;93970.44;5038283;28;20044;-86
2022/09/21 03:40:47;;;;;;;9.43;2.33;;;;;;;18.30;50.06;93970.94;5080491;28;20043;-86
2022/09/21 03:43:13;;;;;;;6.15;2.33;;;;;;;18.31;50.30;93966.22;5053678;28;20041;-86
2022/09/21 03:45:41;;;;;;;7.97;2.25;;;;;;;18.33;49.78;93975.41;5076317;28;20035;-86
2022/09/21 03:48:06;;;;;;;4.28;2.17;;;;;;;18.32;49.87;93970.44;5052188;28;20033;-87
2022/09/21 03:50:31;;;;;;;2.47;2.10;;;;;;;18.34;49.94;93968.69;5051781;28;20552;-87
2022/09/21 03:52:57;;;;;;;3.75;1.73;;;;;;;18.33;50.02;93969.94;5034764;28;20537;-86
2022/09/21 03:55:22;;;;;;;2.80;2.08;;;;;;;18.32;49.91;93971.19;5034786;28;20033;-87
2022/09/21 03:57:48;;;;;;;2.97;1.70;;;;;;;18.33;50.02;93969.19;5054154;28;20033;-87
2022/09/21 04:00:13;;;;;;;6.18;2.25;;;;;;;18.37;50.15;93972.44;5084668;28;20034;-86
2022/09/21 04:02:39;;;;;;;6.32;1.92;;;;;;;18.36;50.08;93981.91;5071555;28;20032;-87
2022/09/21 04:05:06;;;;;;;2.78;2.10;;;;;;;18.33;49.59;93972.69;5070803;28;20490;-87
2022/09/21 04:07:35;;;;;;;3.45;1.92;;;;;;;18.31;49.67;93974.41;5071298;28;20051;-87
2022/09/21 04:10:03;;;;;;;3.13;2.05;;;;;;;18.31;49.70;93974.41;5071492;28;20024;-87
2022/09/21 04:12:28;;;;;;;5.13;2.45;;;;;;;18.31;49.24;93982.63;5058702;28;20040;-87
2022/09/21 04:14:54;;;;;;;4.18;2.47;;;;;;;18.30;49.91;93981.88;5051308;28;20090;-87
2022/09/21 04:17:19;;;;;;;3.10;2.00;;;;;;;18.30;49.75;93981.88;5055587;28;20024;-87
2022/09/21 04:19:44;;;;;;;2.40;1.92;;;;;;;18.29;49.63;93988.59;5054916;28;20032;-87
2022/09/21 04:22:11;;;;;;;2.50;1.92;;;;;;;18.31;50.11;93985.38;5045560;28;20036;-87
2022/09/21 04:24:39;;;;;;;3.33;1.58;;;;;;;18.29;49.99;93988.59;5026647;28;20037;-87
2022/09/21 04:27:06;;;;;;;2.42;1.90;;;;;;;18.32;49.66;93989.59;5043285;28;20403;-87
2022/09/21 04:29:31;;;;;;;4.93;1.92;;;;;;;18.37;49.73;93994.34;5068157;28;20040;-87
2022/09/21 04:31:57;;;;;;;3.78;1.90;;;;;;;18.35;49.87;93986.63;5068212;28;20037;-86
2022/09/21 04:34:22;;;;;;;14.95;2.30;;;;;;;18.38;50.11;93993.09;5067084;28;20121;-86
2022/09/21 04:36:47;;;;;;;4.20;1.92;;;;;;;18.37;50.11;93997.06;5046763;28;20558;-86
2022/09/21 04:39:13;;;;;;;2.65;2.10;;;;;;;18.32;50.32;93995.06;5108071;28;20047;-87
2022/09/21 04:41:38;;;;;;;4.82;2.63;;;;;;;18.42;50.36;93994.31;5099937;28;20035;-86
2022/09/21 04:44:04;;;;;;;18.48;16.45;;;;;;;18.41;50.33;93992.09;5071098;28;20032;-86
2022/09/21 04:46:29;;;;;;;17.55;13.38;;;;;;;18.39;50.12;93997.31;5066876;28;20040;-84
2022/09/21 04:48:55;;;;;;;22.00;9.73;;;;;;;18.41;50.03;93998.31;5099414;28;20082;-89
2022/09/21 04:51:20;;;;;;;17.35;8.93;;;;;;;18.41;49.64;94003.03;5059600;28;20043;-88
2022/09/21 04:53:46;;;;;;;12.38;6.25;;;;;;;18.42;50.09;94005.28;5083480;28;20040;-88
2022/09/21 04:56:17;;;;;;;8.98;6.68;;;;;;;18.41;49.44;94001.03;5050054;28;20400;-88
2022/09/21 04:58:43;;;;;;;13.10;8.38;;;;;;;18.41;49.65;94003.03;5037342;28;20090;-89
2022/09/21 05:01:08;;;;;;;14.05;8.50;;;;;;;18.42;50.02;94001.78;5056356;28;20037;-91
2022/09/21 05:03:34;;;;;;;21.52;10.07;;;;;;;18.42;49.98;94010.00;5068830;28;20037;-89
2022/09/21 05:05:59;;;;;;;137.20;28.38;;;;;;;18.42;49.11;94013.47;5083746;28;20075;-86
2022/09/21 05:11:12;;;;;;;30.20;11.20;;;;;;;18.41;49.27;94011.25;5083403;28;20127;-89
2022/09/21 05:13:38;;;;;;;40.70;13.23;;;;;;;18.40;49.57;94005.03;5072637;28;20044;-89
2022/09/21 05:16:04;;;;;;;31.15;13.70;;;;;;;18.39;49.90;94017.25;5053620;28;20080;-93
2022/09/21 05:18:29;;;;;;;29.70;12.80;;;;;;;18.43;49.71;94014.22;5059398;28;20165;-89
2022/09/21 05:20:55;;;;;;;43.17;16.88;;;;;;;18.43;49.42;94016.97;5073426;28;20124;-88
2022/09/21 05:23:22;;;;;;;49.08;18.67;;;;;;;18.41;49.39;94022.94;5059606;28;20048;-88
2022/09/21 05:25:47;;;;;;;58.50;21.35;;;;;;;18.44;49.35;94021.19;5070718;28;20027;-88
2022/09/21 05:28:13;;;;;;;49.75;18.60;;;;;;;18.41;49.62;94027.66;5053638;28;20036;-88
2022/09/21 05:30:38;;;;;;;54.33;20.83;;;;;;;18.43;49.39;94034.16;5053760;28;20047;-88
2022/09/21 05:33:04;;;;;;;148.15;35.83;;;;;;;18.43;49.45;94028.66;5034435;28;20132;-89
2022/09/21 05:35:32;;;;;;;103.00;32.40;;;;;;;18.41;48.92;94046.81;5078310;28;20036;-87
2022/09/21 05:38:08;;;;;;;68.80;27.70;;;;;;;18.39;49.27;94046.59;5088480;28;20165;-89
2022/09/21 05:40:34;;;;;;;47.08;20.95;;;;;;;18.32;45.13;94044.34;5056988;28;20029;-88
2022/09/21 05:43:00;;;;;;;36.70;15.23;;;;;;;18.23;43.92;94045.31;5064255;28;20299;-90
2022/09/21 05:45:27;;;;;;;62.05;22.55;;;;;;;18.29;45.12;94048.06;5076441;28;20127;-88
2022/09/21 05:47:53;;;;;;;61.35;20.27;;;;;;;18.29;44.74;94048.81;5061932;28;20393;-88
2022/09/21 05:50:33;;;;;;;62.70;22.20;;;;;;;18.30;44.72;94055.78;5075792;28;20047;-88
2022/09/21 05:53:20;;;;;;;96.68;31.65;;;;;;;18.30;45.32;94052.28;5068580;28;20039;-86
2022/09/21 05:56:00;;;;;;;128.65;43.38;;;;;;;18.32;46.33;94056.03;5088097;28;20054;-91
2022/09/21 05:58:32;;;;;;;152.70;68.70;;;;;;;18.33;46.68;94052.06;5058439;28;20044;-90
2022/09/21 06:01:22;;;;;;;113.25;51.38;;;;;;;18.35;46.82;94048.81;5034318;28;20036;-90
2022/09/21 06:03:49;;;;;;;125.47;54.38;;;;;;;18.35;47.11;94046.09;5063342;28;20040;-91
2022/09/21 06:06:16;;;;;;;149.07;65.68;;;;;;;18.37;47.29;94055.31;5057409;28;20068;-87
2022/09/21 06:08:41;;;;;;;150.23;65.90;;;;;;;18.38;47.68;94056.06;5067082;28;20486;-88
2022/09/21 06:11:07;;;;;;;144.80;65.80;;;;;;;18.45;48.04;94039.88;5060897;28;20028;-91
2022/09/21 06:13:32;;;;;;;210.48;131.68;;;;;;;18.44;47.78;94051.31;5046723;28;20095;-93
2022/09/21 06:16:01;;;;;;;144.20;64.63;;;;;;;18.46;47.86;94057.03;5041216;28;20044;-88
2022/09/21 06:18:26;;;;;;;140.07;63.53;;;;;;;18.52;47.76;94051.59;5041759;28;20033;-87
2022/09/21 06:20:52;;;;;;;139.27;62.97;;;;;;;18.58;48.40;94058.56;5048754;28;20097;-87
2022/09/21 06:23:17;;;;;;;179.25;97.38;;;;;;;18.54;47.91;94060.06;5068853;28;20438;-87
2022/09/21 06:25:42;;;;;;;187.18;94.97;;;;;;;18.59;47.98;94059.31;5064576;28;20031;-88
2022/09/21 06:28:10;;;;;;;142.88;67.95;;;;;;;18.60;48.03;94056.13;5041300;28;20479;-86
2022/09/21 06:30:35;;;;;;;127.15;63.92;;;;;;;18.57;48.06;94062.56;5058573;28;20089;-88
2022/09/21 06:33:01;;;;;;;135.57;63.60;;;;;;;18.60;47.71;94053.38;5029057;28;20033;-86
2022/09/21 06:35:27;;;;;;;133.10;63.03;;;;;;;18.58;47.60;94057.81;5052152;28;20090;-90
2022/09/21 06:38:00;;;;;;;120.22;56.95;;;;;;;18.56;47.92;94058.31;5085983;28;20119;-87
2022/09/21 06:40:29;;;;;;;113.60;58.03;;;;;;;18.56;47.52;94065.78;5085769;28;20114;-88
2022/09/21 06:42:57;;;;;;;142.93;62.45;;;;;;;18.56;48.55;94057.56;5046098;28;20041;-87
2022/09/21 06:45:26;;;;;;;138.98;71.78;;;;;;;18.50;47.63;94066.50;5049345;28;20128;-88
2022/09/21 06:47:52;;;;;;;141.70;68.00;;;;;;;18.50;48.00;94065.78;5034309;28;20047;-88
2022/09/21 06:50:19;;;;;;;229.40;121.05;;;;;;;18.48;48.37;94073.72;5032983;28;20108;-88
2022/09/21 06:52:46;;;;;;;191.52;107.65;;;;;;;18.49;48.28;94075.22;5069442;28;20100;-88
2022/09/21 06:55:12;;;;;;;233.25;101.65;;;;;;;18.49;48.06;94075.97;5019214;28;20087;-91
2022/09/21 06:57:38;;;;;;;190.48;96.50;;;;;;;18.48;48.36;94074.47;5035691;28;20438;-89
2022/09/21 07:00:06;;;;;;;204.98;104.40;;;;;;;18.47;48.05;94081.19;5067357;28;20030;-90
2022/09/21 07:02:31;;;;;;;216.30;107.72;;;;;;;18.47;47.82;94092.16;5043362;28;20056;-89
2022/09/21 07:04:57;;;;;;;233.90;118.95;;;;;;;18.52;47.89;94081.69;5067306;28;20675;-91
2022/09/21 07:07:23;;;;;;;210.50;100.93;;;;;;;18.48;48.41;94085.44;5032875;28;20114;-88
2022/09/21 07:09:49;;;;;;;170.50;84.05;;;;;;;18.49;48.02;94092.41;5067698;28;20481;-90
2022/09/21 07:12:14;;;;;;;182.93;91.40;;;;;;;18.51;48.61;94091.91;5047466;28;20441;-89
2022/09/21 07:14:40;;;;;;;166.73;88.10;;;;;;;18.50;48.34;94093.16;5070387;28;20039;-89
2022/09/21 07:17:07;;;;;;;165.85;81.88;;;;;;;18.50;48.41;94101.34;5047811;28;20040;-90
2022/09/21 07:19:33;;;;;;;167.27;86.75;;;;;;;18.51;47.88;94100.13;5051069;28;20032;-90
2022/09/21 07:21:59;;;;;;;173.68;78.20;;;;;;;18.46;48.03;94098.84;5073779;28;20029;-90
2022/09/21 07:24:24;;;;;;;171.68;78.75;;;;;;;18.47;48.09;94102.34;5065638;28;20051;-90
2022/09/21 07:26:51;;;;;;;162.32;77.20;;;;;;;18.48;48.27;94098.38;5050185;28;20043;-88
2022/09/21 07:29:19;;;;;;;156.90;76.72;;;;;;;18.51;48.19;94102.84;5061198;28;20067;-89
2022/09/21 07:31:44;;;;;;;164.32;73.97;;;;;;;18.52;47.89;94109.84;5048798;28;20029;-88
2022/09/21 07:34:10;;;;;;;151.60;66.30;;;;;;;18.48;47.46;94112.81;5050429;28;20041;-88
2022/09/21 07:36:35;;;;;;;142.98;66.80;;;;;;;18.49;47.84;94108.81;5029551;28;20055;-89
2022/09/21 07:39:02;;;;;;;149.35;67.63;;;;;;;18.47;48.00;94114.03;5074529;28;20497;-91
2022/09/21 07:41:27;;;;;;;149.95;69.70;;;;;;;18.47;47.63;94102.34;5061591;28;20859;-89
2022/09/21 07:43:53;;;;;;;121.82;62.63;;;;;;;18.46;48.39;94111.81;5053782;28;20126;-88
2022/09/21 07:46:19;;;;;;;115.18;58.83;;;;;;;18.48;48.56;94107.31;5064808;28;20044;-91
2022/09/21 07:48:45;;;;;;;127.70;61.20;;;;;;;18.48;48.44;94106.56;5060804;28;20120;-88
2022/09/21 07:51:12;;;;;;;130.80;62.80;;;;;;;18.48;48.33;94099.13;5049276;28;20036;-91
2022/09/21 07:53:39;;;;;;;114.43;57.65;;;;;;;18.50;48.81;94104.84;5033606;28;20032;-89
2022/09/21 07:56:08;;;;;;;129.75;66.82;;;;;;;18.53;48.40;94110.56;5029460;28;20059;-90
2022/09/21 08:01:19;;;;;;;109.63;59.22;;;;;;;18.51;48.57;94113.81;5054459;28;20086;-90
2022/09/21 08:03:49;;;;;;;128.05;63.08;;;;;;;18.49;48.43;94116.28;5053126;28;20040;-90
2022/09/21 08:06:16;;;;;;;153.63;68.47;;;;;;;18.51;48.16;94113.81;5091695;28;20052;-90
2022/09/21 08:08:42;;;;;;;145.25;76.07;;;;;;;18.53;48.22;94122.28;5098284;28;20039;-89
2022/09/21 08:11:07;;;;;;;162.95;83.95;;;;;;;18.51;48.54;94108.34;5068959;28;20043;-90
2022/09/21 08:13:34;;;;;;;184.27;92.13;;;;;;;18.56;48.35;94112.34;5071704;28;20064;-90
2022/09/21 08:16:00;;;;;;;192.70;99.22;;;;;;;18.54;48.49;94114.81;5057510;28;20037;-91
2022/09/21 08:18:26;;;;;;;204.98;98.93;;;;;;;18.56;48.52;94120.53;5047234;28;20043;-89
2022/09/21 08:20:58;;;;;;;202.77;99.10;;;;;;;18.52;48.20;94120.78;5050977;28;20032;-90
2022/09/21 08:23:25;;;;;;;193.85;95.07;;;;;;;18.54;48.99;94121.03;5088387;28;20402;-90
2022/09/21 08:25:50;;;;;;;203.57;99.00;;;;;;;18.53;48.19;94127.75;5052443;28;20084;-90
2022/09/21 08:28:17;;;;;;;198.52;96.00;;;;;;;18.58;48.49;94120.81;5035515;28;20061;-90
2022/09/21 08:30:43;;;;;;;205.50;100.43;;;;;;;18.56;48.74;94131.50;5070008;28;20495;-90
2022/09/21 08:33:08;;;;;;;194.55;97.65;;;;;;;18.56;48.18;94128.75;5070723;28;20047;-89
2022/09/21 08:35:35;;;;;;;193.30;94.25;;;;;;;18.56;48.35;94126.03;5077874;28;20131;-90
2022/09/21 08:38:01;;;;;;;178.77;91.43;;;;;;;18.55;48.56;94127.25;5037353;28;20029;-93
2022/09/21 08:40:26;;;;;;;184.57;94.90;;;;;;;18.55;48.38;94128.00;5051683;28;20043;-88
2022/09/21 08:43:03;;;;;;;176.90;88.38;;;;;;;18.57;48.49;94130.25;5071036;28;20056;-89
2022/09/21 08:45:32;;;;;;;173.63;88.03;;;;;;;18.56;48.48;94129.50;5047686;28;20414;-89
2022/09/21 08:47:58;;;;;;;186.77;92.53;;;;;;;18.54;48.57;94123.78;5064124;28;20491;-89
2022/09/21 08:50:34;;;;;;;159.48;82.15;;;;;;;18.55;48.60;94128.00;5084258;28;20047;-89
2022/09/21 08:53:03;;;;;;;182.10;86.43;;;;;;;18.54;48.30;94131.25;5051722;28;20029;-89
2022/09/21 08:55:29;;;;;;;175.02;81.25;;;;;;;18.53;48.73;94135.97;5059053;28;20460;-91
2022/09/21 08:57:55;;;;;;;186.45;88.07;;;;;;;18.53;48.37;94138.72;5061710;28;20044;-90
2022/09/21 09:00:20;;;;;;;229.18;87.72;;;;;;;18.52;48.47;94142.69;5067746;28;20089;-90
2022/09/21 09:03:03;;;;;;;202.18;83.53;;;;;;;18.55;48.52;94133.50;5052115;28;20706;-90
2022/09/21 09:05:41;;;;;;;158.82;75.93;;;;;;;18.56;48.49;94134.22;5076417;28;20036;-90
2022/09/21 09:08:18;;;;;;;158.35;76.47;;;;;;;18.60;48.48;94134.78;5065558;28;20055;-90
2022/09/21 09:11:05;;;;;;;169.85;74.90;;;;;;;18.53;48.66;94125.00;5077376;28;20071;-89
2022/09/21 09:14:01;;;;;;;166.30;72.68;;;;;;;18.54;48.78;94133.97;5075787;28;20589;-89
2022/09/21 09:16:27;;;;;;;145.80;66.63;;;;;;;18.58;48.73;94127.03;5067368;28;20144;-87
2022/09/21 09:18:54;;;;;;;135.52;65.50;;;;;;;18.54;48.80;94129.25;5074937;28;20116;-88
2022/09/21 09:21:28;;;;;;;133.32;68.07;;;;;;;18.54;48.76;94121.03;5042665;28;20601;-89
2022/09/21 09:24:01;;;;;;;116.72;59.08;;;;;;;18.55;48.89;94127.25;5039837;28;20408;-91
2022/09/21 09:26:34;;;;;;;134.68;63.55;;;;;;;18.58;48.69;94127.03;5050399;28;20037;-87
2022/09/21 09:29:06;;;;;;;118.18;61.30;;;;;;;18.58;48.63;94126.28;5064319;28;20048;-83
2022/09/21 09:31:35;;;;;;;130.00;64.57;;;;;;;18.59;48.75;94136.78;5054512;28;20048;-88
2022/09/21 09:34:09;;;;;;;126.80;61.78;;;;;;;18.56;49.07;94126.78;5050103;28;20033;-89
2022/09/21 09:36:34;;;;;;;126.10;60.65;;;;;;;18.60;48.66;94123.81;5046951;28;20147;-89
2022/09/21 09:39:04;;;;;;;115.88;54.67;;;;;;;18.59;49.12;94128.56;5067062;28;20029;-87
2022/09/21 09:41:48;;;;;;;123.03;57.38;;;;;;;18.60;48.67;94127.31;5058366;28;20499;-87
2022/09/21 09:44:37;;;;;;;187.80;66.40;;;;;;;18.60;48.79;94132.03;5067233;28;20032;-88
2022/09/21 09:47:29;;;;;;;167.73;63.67;;;;;;;18.60;48.86;94132.78;5050229;28;20033;-90
2022/09/21 09:50:11;;;;;;;163.65;64.70;;;;;;;18.62;48.59;94124.81;5051094;28;20063;-88
2022/09/21 09:52:37;;;;;;;145.82;62.63;;;;;;;18.62;48.67;94124.81;5044145;28;20040;-90
2022/09/21 09:55:16;;;;;;;131.77;59.38;;;;;;;18.64;48.76;94135.25;5070737;28;20161;-89
2022/09/21 09:57:41;;;;;;;136.23;63.97;;;;;;;18.62;49.05;94127.53;5049018;28;20052;-91
2022/09/21 10:00:11;;;;;;;128.15;64.68;;;;;;;18.64;49.17;94127.78;5061133;28;20028;-92
2022/09/21 10:02:49;;;;;;;124.53;65.88;;;;;;;18.61;48.56;94130.81;5048438;28;20467;-90
2022/09/21 10:05:31;;;;;;;121.43;66.05;;;;;;;18.59;48.82;94123.06;5049763;28;20041;-89
2022/09/21 10:07:57;;;;;;;129.57;60.47;;;;;;;18.60;48.71;94121.09;5050083;28;20037;-89
2022/09/21 10:10:28;;;;;;;122.50;65.40;;;;;;;18.60;48.96;94129.31;5065912;28;20186;-90
2022/09/21 10:13:09;;;;;;;120.18;62.83;;;;;;;18.59;48.90;94119.56;5061843;28;20131;-88
2022/09/21 10:15:50;;;;;;;107.40;61.25;;;;;;;18.63;48.91;94125.56;5051717;28;20571;-90
2022/09/21 10:18:22;;;;;;;111.88;58.03;;;;;;;18.61;48.65;94120.59;5054308;28;20036;-87
2022/09/21 10:21:09;;;;;;;115.88;58.38;;;;;;;18.59;48.66;94125.81;5069349;28;20046;-88
2022/09/21 10:23:35;;;;;;;102.97;54.97;;;;;;;18.62;48.65;94118.59;5067494;28;20040;-87
2022/09/21 10:26:08;;;;;;;103.97;56.95;;;;;;;18.58;48.87;94118.81;5058340;28;20043;-88
2022/09/21 10:28:33;;;;;;;94.45;57.33;;;;;;;18.60;49.09;94112.88;5060180;28;20036;-90
2022/09/21 10:31:15;;;;;;;104.78;56.90;;;;;;;18.60;49.04;94112.88;5080606;28;20108;-88
2022/09/21 10:33:49;;;;;;;104.20;55.78;;;;;;;18.63;48.71;94112.59;5054531;28;20105;-89
2022/09/21 10:36:31;;;;;;;89.93;46.03;;;;;;;18.61;48.81;94117.09;5096525;28;20550;-88
2022/09/21 10:39:16;;;;;;;93.43;51.97;;;;;;;18.61;48.61;94106.16;5051712;28;20060;-88
2022/09/21 10:41:41;;;;;;;93.15;51.22;;;;;;;18.62;48.87;94107.66;5068651;28;20039;-88
2022/09/21 10:44:14;;;;;;;87.47;50.85;;;;;;;18.62;48.90;94104.91;5074193;28;20029;-87
2022/09/21 10:46:39;;;;;;;96.88;50.78;;;;;;;18.66;48.95;94105.41;5061897;28;20046;-87
2022/09/21 10:49:05;;;;;;;71.43;43.67;;;;;;;18.64;49.03;94103.16;5053260;28;20024;-87
2022/09/21 10:51:30;;;;;;;96.03;55.85;;;;;;;18.68;48.77;94108.38;5048603;28;20041;-87
2022/09/21 10:53:55;;;;;;;426.33;285.35;;;;;;;18.69;49.01;94113.38;5082422;28;20040;-87
2022/09/21 10:56:21;;;;;;;110.88;57.22;;;;;;;18.64;48.76;94108.63;5029431;28;20045;-89
2022/09/21 10:59:19;;;;;;;80.55;44.67;;;;;;;18.67;49.33;94110.38;5043011;28;20044;-87
2022/09/21 11:01:45;;;;;;;76.20;41.45;;;;;;;18.71;49.04;94110.13;5045660;28;20132;-87
2022/09/21 11:04:18;;;;;;;66.38;39.67;;;;;;;18.69;48.70;94110.63;5044229;28;20049;-87
2022/09/21 11:06:46;;;;;;;58.22;31.17;;;;;;;18.60;47.97;94112.88;5039848;28;20032;-88
2022/09/21 11:09:17;;;;;;;55.38;30.95;;;;;;;18.61;47.70;94103.41;5067521;28;20116;-87
2022/09/21 11:11:48;;;;;;;62.58;32.83;;;;;;;18.58;47.88;94107.84;5070809;28;20032;-88
2022/09/21 11:14:40;;;;;;;70.30;34.28;;;;;;;18.61;47.76;94112.38;5068589;28;20041;-89
2022/09/21 11:17:17;;;;;;;71.18;35.35;;;;;;;18.62;47.61;94115.88;5085944;28;20048;-87
2022/09/21 11:19:56;;;;;;;61.35;24.80;;;;;;;18.57;46.20;94114.56;5085938;28;20494;-88
2022/09/21 11:22:34;;;;;;;67.82;20.63;;;;;;;18.48;45.61;94112.06;5069509;28;20073;-88
2022/09/21 11:25:19;;;;;;;57.72;21.52;;;;;;;18.45;45.63;94104.81;5068756;28;20364;-87
2022/09/21 11:27:48;;;;;;;52.70;21.52;;;;;;;18.48;45.88;94106.56;5071733;28;20090;-88
2022/09/21 11:30:14;;;;;;;72.40;27.10;;;;;;;18.48;45.87;94112.06;5083069;28;20495;-87
2022/09/21 11:32:52;;;;;;;67.28;26.33;;;;;;;18.50;46.31;94106.84;5066243;28;20045;-87
2022/09/21 11:35:23;;;;;;;74.13;25.20;;;;;;;18.52;45.76;94106.34;5072162;28;20059;-88